createdAt,value
2022-10-09T00:00:49.810Z,102083.31
2022-10-09T00:03:17.596Z,102078.84
2022-10-09T00:05:45.209Z,102086.69
2022-10-09T00:08:11.939Z,102076.84
2022-10-09T00:10:43.279Z,102092.31
2022-10-09T00:13:10.616Z,102089.75
2022-10-09T00:15:45.368Z,102075.28
2022-10-09T00:18:17.879Z,102082.25
2022-10-09T00:20:46.299Z,102074.63
2022-10-09T00:23:17.486Z,102092.03
2022-10-09T00:25:55.843Z,102089.78
2022-10-09T00:28:24.398Z,102085.59
2022-10-09T00:30:51.124Z,102084.22
2022-10-09T00:33:18.132Z,102084.50
2022-10-09T00:35:44.638Z,102074.13
2022-10-09T00:38:11.806Z,102085.28
2022-10-09T00:40:39.306Z,102077.56
2022-10-09T00:43:17.793Z,102073.34
2022-10-09T00:45:50.500Z,102078.69
2022-10-09T00:48:18.712Z,102085.81
2022-10-09T00:50:53.169Z,102084.13
2022-10-09T00:53:22.857Z,102066.94
2022-10-09T00:55:49.925Z,102072.28
2022-10-09T00:58:16.420Z,102070.78
2022-10-09T01:00:42.947Z,102085.66
2022-10-09T01:03:09.472Z,102072.91
2022-10-09T01:06:06.620Z,102087.66
2022-10-09T01:08:58.379Z,102081.88
2022-10-09T01:11:49.828Z,102085.44
2022-10-09T01:14:16.192Z,102089.00
2022-10-09T01:17:21.553Z,102078.63
2022-10-09T01:20:02.094Z,102079.63
2022-10-09T01:23:20.023Z,102081.44
2022-10-09T01:26:00.738Z,102066.38
2022-10-09T01:28:29.365Z,102074.94
2022-10-09T01:31:02.911Z,102071.75
2022-10-09T01:33:31.650Z,102063.53
2022-10-09T01:36:00.852Z,102071.25
2022-10-09T01:38:28.912Z,102073.91
2022-10-09T01:40:56.866Z,102046.72
2022-10-09T01:43:23.341Z,102071.47
2022-10-09T01:45:49.912Z,102039.16
2022-10-09T01:48:23.718Z,102058.84
2022-10-09T01:50:58.097Z,102063.47
2022-10-09T01:53:24.916Z,102069.13
2022-10-09T01:55:56.145Z,102065.75
2022-10-09T01:58:58.330Z,102055.34
2022-10-09T02:01:29.829Z,102031.63
2022-10-09T02:03:59.737Z,102053.53
2022-10-09T02:06:28.312Z,102045.75
2022-10-09T02:08:55.722Z,102035.50
2022-10-09T02:11:26.228Z,102032.97
2022-10-09T02:13:53.930Z,102049.50
2022-10-09T02:16:46.582Z,102044.41
2022-10-09T02:19:30.190Z,102040.41
2022-10-09T02:22:07.095Z,102040.47
2022-10-09T02:24:34.188Z,101978.88
2022-10-09T02:27:02.404Z,102019.03
2022-10-09T02:29:29.085Z,102044.59
2022-10-09T02:31:55.580Z,102038.91
2022-10-09T02:34:22.259Z,101994.84
2022-10-09T02:36:49.853Z,102050.88
2022-10-09T02:39:16.869Z,102052.47
2022-10-09T02:41:43.428Z,102049.03
2022-10-09T02:44:10.346Z,102050.78
2022-10-09T02:46:38.383Z,102049.03
2022-10-09T02:49:05.945Z,102048.13
2022-10-09T02:51:32.569Z,102039.56
2022-10-09T02:54:02.010Z,102053.31
2022-10-09T02:56:28.916Z,102043.81
2022-10-09T02:58:55.408Z,102041.66
2022-10-09T03:01:22.595Z,102040.84
2022-10-09T03:03:49.205Z,102042.66
2022-10-09T03:06:19.532Z,102034.72
2022-10-09T03:08:48.515Z,102034.72
2022-10-09T03:11:16.972Z,102037.47
2022-10-09T03:13:43.745Z,102035.81
2022-10-09T03:16:13.724Z,102048.00
2022-10-09T03:18:40.549Z,102043.88
2022-10-09T03:21:09.493Z,102032.94
2022-10-09T03:23:37.609Z,102034.63
2022-10-09T03:26:08.132Z,102028.69
2022-10-09T03:28:40.283Z,102045.50
2022-10-09T03:31:07.520Z,102034.34
2022-10-09T03:33:35.651Z,102019.81
2022-10-09T03:36:02.575Z,102024.72
2022-10-09T03:38:29.056Z,102028.09
2022-10-09T03:40:57.809Z,102015.28
2022-10-09T03:43:24.370Z,102015.16
2022-10-09T03:45:50.815Z,102019.56
2022-10-09T03:48:17.281Z,102001.69
2022-10-09T03:50:43.759Z,102014.69
2022-10-09T03:53:11.989Z,102015.59
2022-10-09T03:55:39.265Z,102018.50
2022-10-09T03:58:06.091Z,102017.78
2022-10-09T04:00:32.912Z,102021.38
2022-10-09T04:02:59.498Z,102024.03
2022-10-09T04:05:26.154Z,102023.38
2022-10-09T04:07:52.597Z,102020.78
2022-10-09T04:10:19.208Z,102016.50
2022-10-09T04:12:45.757Z,102015.78
2022-10-09T04:15:12.333Z,102019.94
2022-10-09T04:17:38.882Z,102018.25
2022-10-09T04:20:05.633Z,102020.00
2022-10-09T04:22:32.166Z,102016.59
2022-10-09T04:24:58.616Z,102016.00
2022-10-09T04:27:25.146Z,101983.81
2022-10-09T04:29:51.594Z,102018.69
2022-10-09T04:32:18.105Z,102015.31
2022-10-09T04:34:44.541Z,101930.53
2022-10-09T04:37:10.988Z,101994.97
2022-10-09T04:39:37.498Z,101993.06
2022-10-09T04:42:04.239Z,102002.53
2022-10-09T04:44:30.682Z,101994.16
2022-10-09T04:46:59.588Z,101994.16
2022-10-09T04:49:26.065Z,101989.81
2022-10-09T04:51:52.597Z,101986.44
2022-10-09T04:54:19.047Z,101984.84
2022-10-09T04:56:45.480Z,101980.59
2022-10-09T04:59:12.599Z,101919.00
2022-10-09T05:01:39.109Z,101979.97
2022-10-09T05:04:05.693Z,101974.81
2022-10-09T05:06:32.248Z,101975.69
2022-10-09T05:08:58.701Z,101985.97
2022-10-09T05:11:25.931Z,101983.34
2022-10-09T05:13:54.898Z,101986.81
2022-10-09T05:16:24.794Z,101986.75
2022-10-09T05:18:54.110Z,101985.94
2022-10-09T05:21:21.302Z,101988.53
2022-10-09T05:23:48.494Z,101984.16
2022-10-09T05:26:17.670Z,101990.16
2022-10-09T05:28:44.935Z,101990.91
2022-10-09T05:31:20.786Z,101995.94
2022-10-09T05:33:47.705Z,101976.38
2022-10-09T05:36:14.465Z,101996.63
2022-10-09T05:38:41.030Z,101991.47
2022-10-09T05:41:10.296Z,101989.66
2022-10-09T05:43:39.328Z,101993.09
2022-10-09T05:46:15.022Z,101993.22
2022-10-09T05:48:44.094Z,101995.72
2022-10-09T05:51:10.545Z,101993.06
2022-10-09T05:53:38.017Z,101990.53
2022-10-09T05:56:31.512Z,101933.88
2022-10-09T05:59:01.799Z,101988.94
2022-10-09T06:01:32.372Z,101996.88
2022-10-09T06:04:00.677Z,101993.50
2022-10-09T06:06:29.537Z,101985.69
2022-10-09T06:08:56.904Z,101994.97
2022-10-09T06:11:28.239Z,101992.31
2022-10-09T06:13:56.340Z,101986.25
2022-10-09T06:16:25.832Z,101997.22
2022-10-09T06:18:53.782Z,101997.09
2022-10-09T06:21:20.984Z,102001.06
2022-10-09T06:23:52.230Z,101991.97
2022-10-09T06:26:19.524Z,101994.22
2022-10-09T06:28:46.653Z,101990.34
2022-10-09T06:31:17.164Z,101999.28
2022-10-09T06:33:44.898Z,101990.56
2022-10-09T06:36:14.440Z,101988.59
2022-10-09T06:38:41.700Z,101985.72
2022-10-09T06:41:11.136Z,101983.03
2022-10-09T06:43:38.203Z,101996.47
2022-10-09T06:46:07.631Z,102001.78
2022-10-09T06:48:35.558Z,101993.34
2022-10-09T06:51:08.571Z,101990.13
2022-10-09T06:53:40.229Z,101987.97
2022-10-09T06:56:08.591Z,101985.75
2022-10-09T06:58:35.451Z,101976.41
2022-10-09T07:01:11.337Z,101990.22
2022-10-09T07:03:40.442Z,101997.19
2022-10-09T07:06:13.742Z,101998.06
2022-10-09T07:08:42.969Z,101985.03
2022-10-09T07:11:10.134Z,101996.91
2022-10-09T07:13:36.921Z,101997.91
2022-10-09T07:16:04.992Z,101998.56
2022-10-09T07:18:35.381Z,102002.34
2022-10-09T07:21:03.329Z,101992.75
2022-10-09T07:23:31.246Z,101995.78
2022-10-09T07:25:58.756Z,101961.06
2022-10-09T07:28:27.841Z,101994.22
2022-10-09T07:30:54.677Z,101991.97
2022-10-09T07:33:21.248Z,102002.63
2022-10-09T07:35:58.403Z,101992.03
2022-10-09T07:38:25.372Z,101985.22
2022-10-09T07:40:53.064Z,101961.72
2022-10-09T07:43:20.299Z,101984.84
2022-10-09T07:45:47.333Z,101981.81
2022-10-09T07:48:14.077Z,101957.22
2022-10-09T07:50:40.605Z,101977.09
2022-10-09T07:53:08.708Z,101981.50
2022-10-09T07:55:35.695Z,101980.03
2022-10-09T07:58:02.357Z,101975.75
2022-10-09T08:00:28.841Z,101980.66
2022-10-09T08:02:55.603Z,101970.91
2022-10-09T08:05:22.068Z,101970.56
2022-10-09T08:07:48.533Z,101976.31
2022-10-09T08:10:15.148Z,101970.66
2022-10-09T08:12:41.641Z,101965.25
2022-10-09T08:15:08.742Z,101974.53
2022-10-09T08:17:35.163Z,101974.31
2022-10-09T08:20:01.585Z,101984.34
2022-10-09T08:22:28.048Z,101970.97
2022-10-09T08:24:54.568Z,101966.44
2022-10-09T08:27:21.039Z,101960.97
2022-10-09T08:29:47.480Z,101966.47
2022-10-09T08:32:14.040Z,101969.03
2022-10-09T08:34:40.556Z,101959.06
2022-10-09T08:37:07.026Z,101963.25
2022-10-09T08:39:33.464Z,101959.31
2022-10-09T08:42:04.570Z,101933.47
2022-10-09T08:44:37.805Z,101957.09
2022-10-09T08:47:38.151Z,101954.06
2022-10-09T08:50:09.289Z,101943.94
2022-10-09T08:53:00.899Z,101951.78
2022-10-09T08:55:43.362Z,101953.78
2022-10-09T08:58:15.736Z,101930.97
2022-10-09T09:01:09.239Z,101949.94
2022-10-09T09:03:46.634Z,101945.44
2022-10-09T09:06:35.039Z,101938.34
2022-10-09T09:09:10.943Z,101931.84
2022-10-09T09:11:58.616Z,101930.41
2022-10-09T09:15:02.311Z,101940.66
2022-10-09T09:17:47.624Z,101929.31
2022-10-09T09:20:37.645Z,101926.81
2022-10-09T09:23:12.350Z,101921.03
2022-10-09T09:25:42.110Z,101913.97
2022-10-09T09:28:31.213Z,101918.25
2022-10-09T09:31:02.997Z,101910.13
2022-10-09T09:33:36.132Z,101897.06
2022-10-09T09:36:16.798Z,101904.78
2022-10-09T09:39:10.991Z,101903.16
2022-10-09T09:41:30.076Z,101898.03
2022-10-09T09:43:56.571Z,101888.44
2022-10-09T09:46:29.994Z,101883.16
2022-10-09T09:48:56.639Z,101890.13
2022-10-09T09:51:30.313Z,101894.38
2022-10-09T09:54:00.183Z,101891.44
2022-10-09T09:59:40.869Z,101878.25
2022-10-09T10:02:27.025Z,101866.97
2022-10-09T10:04:58.387Z,101856.84
2022-10-09T10:07:28.802Z,101862.59
2022-10-09T10:10:06.196Z,101859.31
2022-10-09T10:12:33.258Z,101862.28
2022-10-09T10:14:59.861Z,101842.81
2022-10-09T10:17:30.437Z,101848.88
2022-10-09T10:19:57.000Z,101845.84
2022-10-09T10:22:26.204Z,101847.63
2022-10-09T10:24:55.885Z,101827.06
2022-10-09T10:27:32.110Z,101843.50
2022-10-09T10:30:02.570Z,101805.41
2022-10-09T10:32:36.104Z,101832.66
2022-10-09T10:35:04.513Z,101815.28
2022-10-09T10:37:47.845Z,101821.94
2022-10-09T10:40:17.739Z,101830.88
2022-10-09T10:42:58.660Z,101815.41
2022-10-09T10:45:33.818Z,101818.19
2022-10-09T10:48:03.303Z,101812.88
2022-10-09T10:50:37.145Z,101798.88
2022-10-09T10:53:12.088Z,101798.69
2022-10-09T10:55:41.464Z,101797.34
2022-10-09T10:58:41.926Z,101792.06
2022-10-09T11:01:17.403Z,101785.63
2022-10-09T11:03:55.764Z,101795.09
2022-10-09T11:06:42.074Z,101778.78
2022-10-09T11:09:34.654Z,101771.56
2022-10-09T11:12:30.113Z,101772.06
2022-10-09T11:15:24.394Z,101759.53
2022-10-09T11:17:57.830Z,101767.94
2022-10-09T11:20:52.552Z,101756.19
2022-10-09T11:23:37.911Z,101749.81
2022-10-09T11:26:16.731Z,101716.34
2022-10-09T11:29:18.435Z,101739.41
2022-10-09T11:32:04.327Z,101735.00
2022-10-09T11:34:37.014Z,101730.03
2022-10-09T11:37:09.023Z,101728.41
2022-10-09T11:39:37.869Z,101722.88
2022-10-09T11:42:06.008Z,101736.78
2022-10-09T11:44:53.866Z,101719.56
2022-10-09T11:47:56.191Z,101717.75
2022-10-09T11:50:49.849Z,101722.06
2022-10-09T11:53:20.833Z,101711.25
2022-10-09T11:55:48.433Z,101692.16
2022-10-09T11:58:25.939Z,101680.25
2022-10-09T12:00:55.351Z,101672.97
2022-10-09T12:03:34.842Z,101682.09
2022-10-09T12:06:06.024Z,101659.91
2022-10-09T12:08:33.085Z,101676.53
2022-10-09T12:11:20.171Z,101668.69
2022-10-09T12:13:56.913Z,101660.47
2022-10-09T12:16:31.426Z,101650.91
2022-10-09T12:19:00.645Z,101631.16
2022-10-09T12:21:56.565Z,101653.88
2022-10-09T12:24:27.476Z,101622.88
2022-10-09T12:26:56.616Z,101647.06
2022-10-09T12:29:47.991Z,101633.00
2022-10-09T12:32:19.741Z,101636.75
2022-10-09T12:34:49.409Z,101628.69
2022-10-09T12:37:21.657Z,101625.38
2022-10-09T12:39:49.676Z,101617.50
2022-10-09T12:42:24.122Z,101620.47
2022-10-09T12:44:54.161Z,101621.59
2022-10-09T12:47:26.532Z,101613.16
2022-10-09T12:50:00.861Z,101612.44
2022-10-09T12:52:27.747Z,101604.47
2022-10-09T12:54:54.529Z,101605.00
2022-10-09T12:57:24.064Z,101596.31
2022-10-09T12:59:54.465Z,101590.72
2022-10-09T13:02:22.157Z,101612.34
2022-10-09T13:05:00.669Z,101592.50
2022-10-09T13:07:29.206Z,101578.63
2022-10-09T13:10:06.331Z,101572.09
2022-10-09T13:12:33.906Z,101567.94
2022-10-09T13:15:04.195Z,101573.69
2022-10-09T13:20:23.900Z,101563.31
2022-10-09T13:22:59.011Z,101560.13
2022-10-09T13:25:28.217Z,101528.22
2022-10-09T13:27:54.861Z,101535.59
2022-10-09T13:30:21.311Z,101533.09
2022-10-09T13:32:47.836Z,101525.66
2022-10-09T13:35:16.139Z,101535.84
2022-10-09T13:37:46.154Z,101535.31
2022-10-09T13:40:20.486Z,101533.50
2022-10-09T13:42:57.387Z,101525.69
2022-10-09T13:45:23.900Z,101517.03
2022-10-09T13:47:50.749Z,101519.81
2022-10-09T13:50:18.053Z,101514.88
2022-10-09T13:52:44.526Z,101501.13
2022-10-09T13:55:11.799Z,101512.03
2022-10-09T13:57:38.493Z,101452.78
2022-10-09T14:00:06.478Z,101497.31
2022-10-09T14:02:33.001Z,101495.28
2022-10-09T14:04:59.473Z,101491.88
2022-10-09T14:07:26.039Z,101490.84
2022-10-09T14:09:52.467Z,101482.88
2022-10-09T14:12:18.955Z,101483.72
2022-10-09T14:14:45.468Z,101482.25
2022-10-09T14:17:11.930Z,101471.09
2022-10-09T14:19:38.404Z,101473.56
2022-10-09T14:22:04.944Z,101464.16
2022-10-09T14:24:31.414Z,101464.75
2022-10-09T14:26:57.922Z,101458.84
2022-10-09T14:29:24.409Z,101452.59
2022-10-09T14:31:51.527Z,101451.09
2022-10-09T14:34:18.138Z,101443.97
2022-10-09T14:36:44.689Z,101435.13
2022-10-09T14:39:11.713Z,101438.09
2022-10-09T14:41:38.242Z,101428.75
2022-10-09T14:44:05.737Z,101426.75
2022-10-09T14:46:33.916Z,101429.91
2022-10-09T14:49:07.387Z,101435.81
2022-10-09T14:51:38.730Z,101423.78
2022-10-09T14:54:06.728Z,101420.75
2022-10-09T14:56:34.058Z,101423.03
2022-10-09T14:59:01.112Z,101412.59
2022-10-09T15:01:29.500Z,101408.75
2022-10-09T15:03:56.461Z,101409.38
2022-10-09T15:06:25.671Z,101395.66
2022-10-09T15:08:56.040Z,101377.13
2022-10-09T15:11:23.037Z,101392.28
2022-10-09T15:13:49.540Z,101397.13
2022-10-09T15:16:17.472Z,101396.75
2022-10-09T15:18:44.314Z,101389.81
2022-10-09T15:21:23.962Z,101394.41
2022-10-09T15:23:53.486Z,101387.00
2022-10-09T15:26:20.110Z,101351.41
2022-10-09T15:28:46.686Z,101378.75
2022-10-09T15:31:22.007Z,101380.94
2022-10-09T15:33:50.663Z,101370.28
2022-10-09T15:36:17.423Z,101369.06
2022-10-09T15:38:43.929Z,101367.69
2022-10-09T15:41:26.884Z,101361.28
2022-10-09T15:43:56.570Z,101341.63
2022-10-09T15:46:23.626Z,101344.09
2022-10-09T15:48:50.787Z,101352.63
2022-10-09T15:51:18.210Z,101344.47
2022-10-09T15:53:46.438Z,101338.09
2022-10-09T15:56:15.061Z,101342.25
2022-10-09T15:58:41.635Z,101324.34
2022-10-09T16:01:10.820Z,101322.56
2022-10-09T16:03:38.005Z,101318.97
2022-10-09T16:06:07.606Z,101319.09
2022-10-09T16:08:34.877Z,101323.44
2022-10-09T16:11:05.579Z,101312.38
2022-10-09T16:13:32.411Z,101318.69
2022-10-09T16:15:59.082Z,101285.13
2022-10-09T16:18:25.585Z,101313.53
2022-10-09T16:20:52.072Z,101317.97
2022-10-09T16:23:18.735Z,101313.56
2022-10-09T16:25:56.045Z,101310.66
2022-10-09T16:28:22.598Z,101310.78
2022-10-09T16:30:49.082Z,101305.94
2022-10-09T16:33:15.616Z,101308.19
2022-10-09T16:35:42.102Z,101298.88
2022-10-09T16:38:09.039Z,101305.41
2022-10-09T16:41:00.881Z,101304.72
2022-10-09T16:43:22.006Z,101302.38
2022-10-09T16:45:48.467Z,101305.69
2022-10-09T16:48:14.974Z,101310.81
2022-10-09T16:50:42.233Z,101309.97
2022-10-09T16:53:09.184Z,101297.22
2022-10-09T16:55:35.953Z,101302.91
2022-10-09T16:58:02.416Z,101294.16
2022-10-09T17:00:29.046Z,101300.78
2022-10-09T17:02:55.574Z,101306.47
2022-10-09T17:05:22.108Z,101305.19
2022-10-09T17:07:48.892Z,101311.19
2022-10-09T17:10:15.597Z,101299.03
2022-10-09T17:12:42.379Z,101296.09
2022-10-09T17:15:08.972Z,101281.13
2022-10-09T17:17:35.460Z,101288.72
2022-10-09T17:20:01.932Z,101269.28
2022-10-09T17:22:28.458Z,101200.53
2022-10-09T17:24:54.907Z,101297.63
2022-10-09T17:27:21.365Z,101301.03
2022-10-09T17:29:47.822Z,101304.25
2022-10-09T17:32:14.353Z,101310.56
2022-10-09T17:34:45.633Z,101292.84
2022-10-09T17:37:13.013Z,101292.75
2022-10-09T17:39:39.640Z,101290.97
2022-10-09T17:42:06.257Z,101297.41
2022-10-09T17:44:32.768Z,101296.59
2022-10-09T17:47:00.827Z,101297.44
2022-10-09T17:49:27.591Z,101299.00
2022-10-09T17:51:54.582Z,101262.09
2022-10-09T17:54:21.467Z,101309.88
2022-10-09T17:56:48.356Z,101300.44
2022-10-09T17:59:15.806Z,101289.72
2022-10-09T18:01:42.742Z,101295.69
2022-10-09T18:04:14.522Z,101282.09
2022-10-09T18:06:41.000Z,101286.88
2022-10-09T18:09:07.452Z,101296.69
2022-10-09T18:11:33.987Z,101290.69
2022-10-09T18:14:00.688Z,101288.72
2022-10-09T18:16:36.172Z,101277.75
2022-10-09T18:19:06.214Z,101279.31
2022-10-09T18:21:34.417Z,101267.38
2022-10-09T18:24:00.907Z,101273.81
2022-10-09T18:26:27.405Z,101277.03
2022-10-09T18:28:53.937Z,101272.50
2022-10-09T18:31:23.609Z,101269.75
2022-10-09T18:33:50.391Z,101273.34
2022-10-09T18:36:20.005Z,101264.44
2022-10-09T18:38:52.425Z,101265.25
2022-10-09T18:41:20.470Z,101267.53
2022-10-09T18:43:47.920Z,101257.16
2022-10-09T18:46:17.104Z,101265.66
2022-10-09T18:48:44.631Z,101258.75
2022-10-09T18:51:15.920Z,101258.59
2022-10-09T18:53:45.120Z,101197.66
2022-10-09T18:56:12.336Z,101266.38
2022-10-09T18:58:41.005Z,101256.25
2022-10-09T19:01:07.966Z,101246.34
2022-10-09T19:03:36.689Z,101261.03
2022-10-09T19:06:04.480Z,101260.91
2022-10-09T19:08:31.032Z,101255.66
2022-10-09T19:10:57.552Z,101250.06
2022-10-09T19:13:25.054Z,101255.91
2022-10-09T19:15:53.721Z,101240.91
2022-10-09T19:18:21.101Z,101236.38
2022-10-09T19:20:48.190Z,101242.56
2022-10-09T19:23:15.358Z,101247.91
2022-10-09T19:25:55.211Z,101246.09
2022-10-09T19:28:23.580Z,101242.88
2022-10-09T19:30:51.131Z,101237.75
2022-10-09T19:33:18.312Z,101244.53
2022-10-09T19:35:49.866Z,101243.38
2022-10-09T19:38:17.565Z,101236.81
2022-10-09T19:40:44.884Z,101239.53
2022-10-09T19:43:12.811Z,101230.00
2022-10-09T19:45:39.374Z,101234.28
2022-10-09T19:48:06.013Z,101233.22
2022-10-09T19:50:32.946Z,101227.56
2022-10-09T19:53:03.083Z,101230.03
2022-10-09T19:55:33.282Z,101227.22
2022-10-09T19:57:59.922Z,101230.06
2022-10-09T20:00:26.794Z,101216.72
2022-10-09T20:02:53.549Z,101225.41
2022-10-09T20:05:20.140Z,101218.75
2022-10-09T20:07:46.637Z,101223.03
2022-10-09T20:10:13.355Z,101201.38
2022-10-09T20:12:39.817Z,101214.47
2022-10-09T20:15:07.163Z,101212.91
2022-10-09T20:17:33.797Z,101221.22
2022-10-09T20:20:04.148Z,101211.00
2022-10-09T20:22:30.671Z,101211.84
2022-10-09T20:24:57.179Z,101206.19
2022-10-09T20:27:23.620Z,101214.19
2022-10-09T20:29:52.613Z,101213.44
2022-10-09T20:32:19.089Z,101203.22
2022-10-09T20:34:45.902Z,101209.53
2022-10-09T20:37:12.617Z,101203.81
2022-10-09T20:39:39.227Z,101207.16
2022-10-09T20:42:05.747Z,101207.38
2022-10-09T20:44:32.218Z,101205.84
2022-10-09T20:46:58.788Z,101210.38
2022-10-09T20:49:25.266Z,101199.41
2022-10-09T20:51:53.121Z,101172.81
2022-10-09T20:54:21.664Z,101197.84
2022-10-09T20:56:49.671Z,101198.28
2022-10-09T20:59:17.117Z,101197.56
2022-10-09T21:01:43.671Z,101193.16
2022-10-09T21:04:11.620Z,101194.69
2022-10-09T21:06:38.776Z,101202.09
2022-10-09T21:09:05.544Z,101203.97
2022-10-09T21:11:34.421Z,101196.09
2022-10-09T21:14:02.402Z,101192.91
2022-10-09T21:16:29.250Z,101190.03
2022-10-09T21:18:59.023Z,101192.41
2022-10-09T21:21:26.603Z,101189.19
2022-10-09T21:23:54.965Z,101188.56
2022-10-09T21:26:22.869Z,101183.59
2022-10-09T21:28:52.440Z,101187.25
2022-10-09T21:31:26.086Z,101182.47
2022-10-09T21:33:52.692Z,101187.22
2022-10-09T21:36:36.589Z,101188.63
2022-10-09T21:39:05.449Z,101184.88
2022-10-09T21:41:32.960Z,101177.59
2022-10-09T21:44:00.196Z,101180.78
2022-10-09T21:46:26.896Z,101181.31
2022-10-09T21:48:53.540Z,101160.97
2022-10-09T21:51:20.017Z,101157.97
2022-10-09T21:53:46.439Z,101171.25
2022-10-09T21:56:13.466Z,101163.25
2022-10-09T21:58:40.488Z,101158.97
2022-10-09T22:01:07.522Z,101159.56
2022-10-09T22:03:36.276Z,101167.13
2022-10-09T22:06:08.156Z,101159.72
2022-10-09T22:08:34.692Z,101155.94
2022-10-09T22:11:07.633Z,101153.16
2022-10-09T22:13:34.507Z,101141.16
2022-10-09T22:16:04.590Z,101154.31
2022-10-09T22:18:31.037Z,101151.81
2022-10-09T22:21:04.275Z,101148.69
2022-10-09T22:23:30.690Z,101139.69
2022-10-09T22:25:59.376Z,101138.16
2022-10-09T22:28:25.955Z,101130.97
2022-10-09T22:31:19.255Z,101141.41
2022-10-09T22:33:57.412Z,101134.38
2022-10-09T22:36:26.772Z,101140.53
2022-10-09T22:38:55.267Z,101139.09
2022-10-09T22:41:23.888Z,101131.34
2022-10-09T22:43:53.178Z,101135.13
2022-10-09T22:46:25.774Z,101130.31
2022-10-09T22:48:53.254Z,101124.38
2022-10-09T22:51:21.456Z,101125.56
2022-10-09T22:53:49.811Z,101119.63
2022-10-09T22:56:19.550Z,101113.78
2022-10-09T22:58:46.393Z,101101.38
2022-10-09T23:01:17.151Z,101110.53
2022-10-09T23:03:44.317Z,101110.47
2022-10-09T23:06:14.870Z,101107.63
2022-10-09T23:08:43.854Z,101107.22
2022-10-09T23:11:11.274Z,101107.78
2022-10-09T23:13:37.897Z,101102.75
2022-10-09T23:16:06.729Z,101098.91
2022-10-09T23:18:34.140Z,101099.31
2022-10-09T23:21:06.130Z,101105.59
2022-10-09T23:23:34.037Z,101103.69
2022-10-09T23:26:08.604Z,101100.16
2022-10-09T23:28:35.870Z,101099.03
2022-10-09T23:31:07.433Z,101088.91
2022-10-09T23:33:34.941Z,101049.44
2022-10-09T23:36:05.150Z,101061.44
2022-10-09T23:38:31.984Z,101083.78
2022-10-09T23:41:00.380Z,101089.84
2022-10-09T23:43:28.165Z,101093.47
2022-10-09T23:45:56.124Z,101081.69
2022-10-09T23:48:22.604Z,101090.88
2022-10-09T23:50:51.981Z,101094.72
2022-10-09T23:53:19.636Z,101093.06
2022-10-09T23:55:46.118Z,101061.00
2022-10-09T23:58:17.159Z,101080.72
